Terminal Aerodrome Forecast
Issued by NWS Atlanta, GA

Home | Current Version | Previous Version | Text Only | Print | Product List | Glossary On
Versions: 1 2 3 4 5 6 7 8 9 10 11 12 13 14 15 16 17
000
FTUS42 KFFC 290531
TAFCSG
TAF
KCSG 290531Z 2906/3006 VRB03KT P6SM BKN100
     FM291000 VRB03KT P6SM SCT120 BKN250
     FM291400 33006KT P6SM SCT050 PROB30 2920/2924 6SM -TSRA
      BKN040CB
     FM300100 02004KT P6SM SCT100 BKN250=

USA.gov is the U.S. government's official web portal to all federal, state and local government web resources and services.